Time;durP1;ratioP1;P1;durP2;ratioP2;P2;SDS_P1;SDS_P2;PMS_P1;PMS_P2;Temp;Humidity;BMP_temperature;BMP_pressure;BME280_temperature;BME280_humidity;BME280_pressure;Samples;Min_cycle;Max_cycle;Signal;HPM_P1;HPM_P2
2022/04/20 00:02:08;;;;;;;6.70;4.87;;;5.80;99.90;;;;;;4956629;28;20217;-73
2022/04/20 00:04:35;;;;;;;6.20;4.40;;;5.80;99.90;;;;;;4972717;28;20257;-73
2022/04/20 00:07:02;;;;;;;6.33;4.50;;;5.80;99.90;;;;;;4958370;29;20284;-72
2022/04/20 00:09:29;;;;;;;9.93;4.50;;;5.70;99.90;;;;;;4972973;28;20194;-71
2022/04/20 00:11:56;;;;;;;5.40;4.30;;;5.80;99.90;;;;;;4956894;29;20197;-72
2022/04/20 00:14:23;;;;;;;7.37;4.37;;;5.90;99.90;;;;;;4957814;28;20551;-71
2022/04/20 00:16:50;;;;;;;10.10;4.90;;;5.90;99.90;;;;;;4956470;29;20201;-72
2022/04/20 00:19:17;;;;;;;6.63;4.67;;;5.70;99.90;;;;;;4956786;29;20214;-72
2022/04/20 00:21:44;;;;;;;6.33;4.50;;;5.70;99.90;;;;;;4975207;28;20207;-71
2022/04/20 00:24:11;;;;;;;6.60;4.50;;;5.60;99.90;;;;;;4975862;28;20802;-72
2022/04/20 00:26:41;;;;;;;6.20;4.60;;;5.60;99.90;;;;;;4977172;28;20187;-72
2022/04/20 00:29:08;;;;;;;6.17;4.60;;;5.60;99.90;;;;;;4975926;28;20201;-71
2022/04/20 00:31:34;;;;;;;7.27;4.63;;;5.70;99.90;;;;;;4975524;28;20200;-71
2022/04/20 00:34:01;;;;;;;5.90;4.53;;;5.60;99.90;;;;;;4975677;28;20240;-70
2022/04/20 00:36:28;;;;;;;7.77;5.07;;;5.60;99.90;;;;;;4975527;28;20601;-72
2022/04/20 00:38:55;;;;;;;6.93;4.83;;;5.50;99.90;;;;;;4976810;28;20251;-72
2022/04/20 00:41:22;;;;;;;6.30;4.87;;;5.60;99.90;;;;;;4975603;28;20208;-72
2022/04/20 00:43:49;;;;;;;6.37;4.73;;;5.70;99.90;;;;;;4975401;28;20244;-71
2022/04/20 00:46:21;;;;;;;7.90;4.87;;;5.80;99.90;;;;;;4976581;28;20210;-74
2022/04/20 00:48:51;;;;;;;10.17;4.77;;;5.80;99.90;;;;;;4975475;28;20212;-71
2022/04/20 00:51:19;;;;;;;7.37;5.13;;;5.90;99.90;;;;;;4975014;28;20634;-73
2022/04/20 00:53:46;;;;;;;6.50;4.90;;;5.90;99.90;;;;;;4975484;28;20306;-73
2022/04/20 00:56:13;;;;;;;7.23;5.30;;;5.80;99.90;;;;;;4974710;28;20643;-75
2022/04/20 00:58:41;;;;;;;7.80;5.27;;;5.90;99.90;;;;;;4975665;28;20307;-71
2022/04/20 01:01:08;;;;;;;7.20;5.67;;;5.80;99.90;;;;;;4975090;28;20236;-72
2022/04/20 01:03:36;;;;;;;7.57;5.70;;;5.70;99.90;;;;;;4964821;28;20621;-72
2022/04/20 01:06:03;;;;;;;7.83;5.40;;;5.70;99.90;;;;;;4955547;29;20197;-72
2022/04/20 01:08:29;;;;;;;8.20;5.73;;;5.70;99.90;;;;;;4955497;28;20204;-74
2022/04/20 01:10:56;;;;;;;7.87;5.70;;;5.70;99.90;;;;;;4955689;29;20208;-74
2022/04/20 01:13:24;;;;;;;7.87;6.07;;;5.60;99.90;;;;;;4955163;28;20692;-72
2022/04/20 01:15:51;;;;;;;8.60;6.47;;;5.60;99.90;;;;;;4974646;28;20228;-71
2022/04/20 01:18:18;;;;;;;8.80;6.17;;;5.60;99.90;;;;;;4974844;28;20208;-70
2022/04/20 01:20:45;;;;;;;10.50;6.33;;;5.60;99.90;;;;;;4974578;28;20205;-72
2022/04/20 01:23:11;;;;;;;9.07;6.50;;;5.60;99.90;;;;;;4974857;28;20232;-70
2022/04/20 01:25:39;;;;;;;9.87;6.50;;;5.70;99.90;;;;;;4974609;28;20673;-72
2022/04/20 01:28:07;;;;;;;8.90;6.60;;;5.70;99.90;;;;;;4974642;28;20663;-73
2022/04/20 01:30:35;;;;;;;9.37;6.20;;;5.70;99.90;;;;;;4974516;28;20200;-72
2022/04/20 01:33:02;;;;;;;9.80;6.60;;;5.70;99.90;;;;;;4974415;28;20204;-73
2022/04/20 01:35:29;;;;;;;10.17;6.60;;;5.60;99.90;;;;;;4974484;28;20209;-70
2022/04/20 01:37:56;;;;;;;9.50;6.63;;;5.50;99.90;;;;;;4974424;28;20212;-71
2022/04/20 01:40:22;;;;;;;9.33;6.77;;;5.60;99.90;;;;;;4976060;28;20199;-71
2022/04/20 01:42:49;;;;;;;10.27;7.67;;;5.50;99.90;;;;;;4974872;28;20220;-70
2022/04/20 01:45:16;;;;;;;10.17;6.67;;;5.60;99.90;;;;;;4963691;28;20212;-72
2022/04/20 01:47:43;;;;;;;9.37;7.00;;;5.60;99.90;;;;;;4973503;28;20530;-72
2022/04/20 01:50:10;;;;;;;10.03;7.27;;;5.70;99.90;;;;;;4974178;28;20219;-71
2022/04/20 01:52:37;;;;;;;9.97;7.20;;;5.60;99.90;;;;;;4973947;28;20211;-73
2022/04/20 01:55:04;;;;;;;11.47;8.07;;;5.60;99.90;;;;;;4974076;28;20201;-73
2022/04/20 01:57:31;;;;;;;11.20;8.13;;;5.60;99.90;;;;;;4974491;28;20207;-73
2022/04/20 01:59:58;;;;;;;10.67;7.40;;;5.60;99.90;;;;;;4975340;28;20584;-72
2022/04/20 02:02:38;;;;;;;11.83;7.73;;;5.60;99.90;;;;;;4974210;28;20215;-73
2022/04/20 02:05:09;;;;;;;10.10;7.33;;;5.60;99.90;;;;;;4975602;28;20198;-73
2022/04/20 02:07:36;;;;;;;12.07;7.97;;;5.70;99.90;;;;;;4974603;28;20202;-74
2022/04/20 02:10:04;;;;;;;11.67;7.83;;;5.70;99.90;;;;;;4974284;28;20250;-75
2022/04/20 02:12:32;;;;;;;10.40;7.67;;;5.70;99.90;;;;;;4974168;28;20202;-73
2022/04/20 02:14:59;;;;;;;10.93;7.33;;;5.70;99.90;;;;;;4973801;28;20206;-73
2022/04/20 02:17:26;;;;;;;10.27;7.13;;;5.70;99.90;;;;;;4974010;28;20208;-72
2022/04/20 02:19:57;;;;;;;10.23;7.40;;;5.80;99.90;;;;;;4974020;28;20206;-72
2022/04/20 02:22:24;;;;;;;9.20;6.97;;;5.90;99.90;;;;;;4989871;28;20298;-74
2022/04/20 02:24:51;;;;;;;11.87;6.93;;;5.90;99.90;;;;;;4973627;28;20208;-73
2022/04/20 02:27:17;;;;;;;9.70;7.03;;;6.00;99.90;;;;;;4973377;28;20212;-73
2022/04/20 02:29:44;;;;;;;10.13;7.23;;;6.10;99.90;;;;;;4974152;28;20194;-73
2022/04/20 02:32:11;;;;;;;11.27;7.40;;;6.00;99.90;;;;;;4973785;28;20212;-74
2022/04/20 02:34:38;;;;;;;11.17;7.57;;;6.00;99.90;;;;;;4973512;28;20255;-72
2022/04/20 02:37:05;;;;;;;11.10;7.43;;;5.70;99.90;;;;;;4974781;28;20224;-75
2022/04/20 02:39:33;;;;;;;10.97;7.67;;;5.80;99.90;;;;;;4974995;28;20204;-71
2022/04/20 02:42:00;;;;;;;12.97;7.93;;;5.80;99.90;;;;;;4974891;28;20207;-74
2022/04/20 02:44:27;;;;;;;11.13;7.97;;;5.70;99.90;;;;;;4973254;28;20698;-71
2022/04/20 02:46:54;;;;;;;12.87;8.17;;;5.70;99.90;;;;;;4973457;28;20549;-72
2022/04/20 02:49:21;;;;;;;13.20;8.33;;;5.60;99.90;;;;;;4973655;28;20199;-74
2022/04/20 02:51:48;;;;;;;13.63;8.73;;;5.50;99.90;;;;;;4973445;28;20202;-73
2022/04/20 02:54:15;;;;;;;11.97;8.80;;;5.50;99.90;;;;;;4972969;28;20206;-75
2022/04/20 02:56:42;;;;;;;13.97;9.27;;;5.50;99.90;;;;;;4973251;28;20204;-74
2022/04/20 02:59:09;;;;;;;13.77;9.23;;;5.50;99.90;;;;;;4973266;28;20204;-74
2022/04/20 03:01:36;;;;;;;13.57;9.67;;;5.50;99.90;;;;;;4973338;28;20205;-74
2022/04/20 03:04:03;;;;;;;14.80;10.00;;;5.50;99.90;;;;;;4973497;28;20318;-73
2022/04/20 03:06:31;;;;;;;14.20;9.73;;;5.50;99.90;;;;;;4974344;28;20198;-74
2022/04/20 03:08:58;;;;;;;12.80;9.87;;;5.60;99.90;;;;;;4973649;28;20227;-73
2022/04/20 03:11:25;;;;;;;14.10;9.53;;;5.60;99.90;;;;;;4973459;28;20572;-75
2022/04/20 03:13:51;;;;;;;16.23;9.10;;;5.50;99.90;;;;;;4973144;28;20598;-75
2022/04/20 03:16:18;;;;;;;14.87;10.10;;;5.50;99.90;;;;;;4973475;28;20203;-74
2022/04/20 03:18:45;;;;;;;15.07;10.53;;;5.50;99.90;;;;;;4976459;28;20545;-74
2022/04/20 03:21:12;;;;;;;14.90;10.43;;;5.50;99.90;;;;;;4977071;28;20288;-75
2022/04/20 03:23:39;;;;;;;15.23;10.07;;;5.60;99.90;;;;;;4977305;28;20225;-75
2022/04/20 03:26:06;;;;;;;15.07;10.90;;;5.60;99.90;;;;;;4978144;28;20193;-76
2022/04/20 03:28:33;;;;;;;14.67;10.57;;;5.40;99.90;;;;;;4976928;28;20298;-77
2022/04/20 03:31:01;;;;;;;14.37;10.53;;;5.40;99.90;;;;;;4977146;28;20205;-75
2022/04/20 03:33:28;;;;;;;13.63;10.07;;;5.50;99.90;;;;;;4978041;28;20218;-75
2022/04/20 03:35:55;;;;;;;14.33;10.50;;;5.50;99.90;;;;;;4977015;28;20208;-77
2022/04/20 03:38:22;;;;;;;14.97;10.70;;;5.50;99.90;;;;;;4977056;28;20270;-76
2022/04/20 03:40:49;;;;;;;16.17;10.93;;;5.50;99.90;;;;;;4977173;28;20216;-76
2022/04/20 03:43:16;;;;;;;13.57;10.17;;;5.60;99.90;;;;;;4977608;28;20237;-76
2022/04/20 03:45:43;;;;;;;13.93;9.83;;;5.60;99.90;;;;;;4976779;28;20197;-75
2022/04/20 03:48:10;;;;;;;13.53;10.23;;;5.50;99.90;;;;;;4976582;28;20201;-75
2022/04/20 03:50:37;;;;;;;16.53;10.77;;;5.60;99.90;;;;;;4976506;28;20303;-76
2022/04/20 03:53:04;;;;;;;14.50;10.83;;;5.50;99.90;;;;;;4976434;28;20227;-76
2022/04/20 03:55:31;;;;;;;14.13;10.97;;;5.50;99.90;;;;;;4978080;28;20212;-75
2022/04/20 03:57:57;;;;;;;15.37;10.83;;;5.50;99.90;;;;;;4976521;28;20204;-75
2022/04/20 04:00:25;;;;;;;14.27;10.80;;;5.60;99.90;;;;;;4976410;28;20229;-75
2022/04/20 04:02:52;;;;;;;14.10;10.37;;;5.60;99.90;;;;;;4976271;28;20576;-74
2022/04/20 04:05:19;;;;;;;15.73;10.87;;;5.60;99.90;;;;;;4977477;28;20208;-73
2022/04/20 04:07:47;;;;;;;14.67;10.73;;;5.50;99.90;;;;;;4976053;28;20218;-75
2022/04/20 04:10:13;;;;;;;14.37;11.17;;;5.50;99.90;;;;;;4976433;28;20677;-73
2022/04/20 04:12:41;;;;;;;16.27;10.77;;;5.50;99.90;;;;;;4977184;28;20574;-75
2022/04/20 04:15:08;;;;;;;13.60;10.20;;;5.60;99.90;;;;;;4959455;28;20204;-72
2022/04/20 04:17:35;;;;;;;13.30;10.40;;;5.60;99.90;;;;;;4977204;28;20189;-73
2022/04/20 04:20:04;;;;;;;14.00;10.70;;;5.60;99.90;;;;;;4975891;28;20211;-71
2022/04/20 04:22:31;;;;;;;13.73;10.80;;;5.60;99.90;;;;;;4975973;28;20207;-73
2022/04/20 04:24:58;;;;;;;14.87;10.97;;;5.50;99.90;;;;;;4975680;28;20234;-73
2022/04/20 04:27:25;;;;;;;13.40;9.73;;;5.60;99.90;;;;;;4975846;28;20558;-72
2022/04/20 04:29:52;;;;;;;14.00;10.13;;;5.50;99.90;;;;;;4975809;28;20188;-73
2022/04/20 04:32:19;;;;;;;12.27;9.77;;;5.60;99.90;;;;;;4975497;28;20201;-72
2022/04/20 04:34:46;;;;;;;14.10;10.33;;;5.60;99.90;;;;;;4975485;28;20397;-71
2022/04/20 04:37:14;;;;;;;14.27;9.80;;;5.50;99.90;;;;;;4975377;28;20709;-72
2022/04/20 04:39:41;;;;;;;13.47;9.67;;;5.60;99.90;;;;;;4975522;28;20207;-73
2022/04/20 04:42:08;;;;;;;14.37;9.63;;;5.60;99.90;;;;;;4975463;28;20666;-72
2022/04/20 04:44:35;;;;;;;11.80;9.27;;;5.60;99.90;;;;;;4975312;28;20225;-73
2022/04/20 04:50:03;;;;;;;12.23;9.10;;;5.60;99.90;;;;;;4939052;29;20224;-72
2022/04/20 04:52:31;;;;;;;11.97;8.50;;;5.60;99.90;;;;;;4955091;29;20213;-72
2022/04/20 04:54:58;;;;;;;11.00;8.20;;;5.70;99.90;;;;;;4955122;29;20281;-72
2022/04/20 04:57:24;;;;;;;10.43;7.97;;;5.70;99.90;;;;;;4938972;29;20217;-73
2022/04/20 04:59:51;;;;;;;11.70;7.60;;;5.70;99.90;;;;;;4939086;29;20238;-74
2022/04/20 05:02:20;;;;;;;9.17;7.33;;;5.70;99.90;;;;;;4939259;29;20625;-73
2022/04/20 05:04:47;;;;;;;10.03;7.50;;;5.80;99.90;;;;;;4938786;29;20317;-73
2022/04/20 05:07:14;;;;;;;10.50;7.30;;;5.70;99.90;;;;;;4954790;29;20205;-73
2022/04/20 05:09:41;;;;;;;9.27;7.10;;;5.70;99.90;;;;;;4938591;29;20221;-73
2022/04/20 05:12:08;;;;;;;9.00;6.90;;;5.70;99.90;;;;;;4938675;29;20734;-73
2022/04/20 05:14:37;;;;;;;9.47;7.13;;;5.70;99.90;;;;;;4954628;29;20201;-73
2022/04/20 05:17:04;;;;;;;9.40;7.27;;;5.80;99.90;;;;;;4954708;29;20571;-74
2022/04/20 05:19:31;;;;;;;9.57;7.17;;;5.80;99.90;;;;;;4938714;29;20205;-74
2022/04/20 05:21:58;;;;;;;9.40;7.37;;;5.80;99.90;;;;;;4954752;29;20262;-74
2022/04/20 05:24:25;;;;;;;10.63;7.43;;;5.90;99.90;;;;;;4954689;29;20229;-75
2022/04/20 05:26:52;;;;;;;9.73;7.20;;;5.90;99.90;;;;;;4974488;28;20209;-71
2022/04/20 05:29:19;;;;;;;9.87;7.67;;;6.00;99.90;;;;;;4974773;28;20684;-73
2022/04/20 05:31:46;;;;;;;9.77;7.30;;;6.10;99.90;;;;;;4974713;28;20219;-72
2022/04/20 05:34:13;;;;;;;9.73;7.40;;;6.20;99.90;;;;;;4974498;28;20302;-72
2022/04/20 05:42:11;;;;;;;9.17;6.90;;;6.10;99.90;;;;;;4974178;28;20201;-72
2022/04/20 05:44:37;;;;;;;10.03;6.93;;;6.10;99.90;;;;;;4974238;28;20568;-73
2022/04/20 05:47:04;;;;;;;8.57;6.37;;;6.20;99.90;;;;;;4974145;28;20223;-73
2022/04/20 05:49:31;;;;;;;8.90;6.47;;;6.20;99.90;;;;;;4974166;28;20209;-73
2022/04/20 05:51:58;;;;;;;8.63;6.77;;;6.20;99.90;;;;;;4974475;28;20214;-71
2022/04/20 05:54:25;;;;;;;8.97;6.53;;;6.30;99.90;;;;;;4974512;28;20236;-72
2022/04/20 05:56:52;;;;;;;9.37;6.43;;;6.20;99.90;;;;;;4974272;28;20209;-72
2022/04/20 05:59:19;;;;;;;9.13;7.27;;;6.20;99.90;;;;;;4974093;28;20545;-71
2022/04/20 06:01:46;;;;;;;8.77;6.80;;;6.30;99.90;;;;;;4973982;28;20197;-72
2022/04/20 06:04:13;;;;;;;8.97;6.50;;;6.20;99.90;;;;;;4973868;28;20275;-71
2022/04/20 06:06:40;;;;;;;7.10;6.27;;;6.20;99.90;;;;;;4973906;28;20225;-72
2022/04/20 06:09:06;;;;;;;8.97;6.73;;;6.10;99.90;;;;;;4975237;28;20666;-72
2022/04/20 06:11:33;;;;;;;8.87;7.13;;;6.20;99.90;;;;;;4974159;28;20301;-72
2022/04/20 06:14:00;;;;;;;9.67;6.70;;;6.30;99.90;;;;;;4973582;28;20204;-71
2022/04/20 06:16:31;;;;;;;9.07;6.93;;;6.40;99.90;;;;;;4977796;28;20204;-74
2022/04/20 06:19:02;;;;;;;8.83;6.30;;;6.40;99.90;;;;;;4983829;28;20215;-74
2022/04/20 06:21:31;;;;;;;8.37;6.40;;;6.30;99.90;;;;;;4985825;28;20201;-72
2022/04/20 06:24:00;;;;;;;7.87;6.10;;;6.20;99.90;;;;;;4978560;28;20226;-74
2022/04/20 06:26:27;;;;;;;8.10;6.13;;;6.20;99.90;;;;;;4990403;28;20197;-74
2022/04/20 06:28:54;;;;;;;8.10;6.20;;;6.10;99.90;;;;;;4974562;28;20678;-74
2022/04/20 06:31:21;;;;;;;8.77;6.20;;;6.20;99.90;;;;;;4973742;28;20201;-74
2022/04/20 06:33:48;;;;;;;8.80;6.40;;;6.20;99.90;;;;;;4973657;28;20208;-73
2022/04/20 06:36:14;;;;;;;9.20;6.13;;;6.30;99.90;;;;;;4973896;28;20210;-73
2022/04/20 06:38:41;;;;;;;9.20;6.10;;;6.40;99.90;;;;;;4973490;28;20653;-73
2022/04/20 06:41:08;;;;;;;9.33;6.07;;;6.30;99.90;;;;;;4974798;28;20674;-72
2022/04/20 06:43:35;;;;;;;7.33;5.60;;;6.40;99.90;;;;;;4974613;28;20552;-72
2022/04/20 06:46:02;;;;;;;7.53;5.50;;;6.50;99.90;;;;;;4973649;28;20287;-73
2022/04/20 06:48:29;;;;;;;7.83;5.47;;;6.40;99.90;;;;;;4973762;28;20204;-70
2022/04/20 06:50:57;;;;;;;7.67;5.40;;;6.30;99.90;;;;;;4973617;28;20564;-73
2022/04/20 06:58:56;;;;;;;7.63;5.63;;;6.50;99.90;;;;;;4973700;28;20190;-82
2022/04/20 07:01:23;;;;;;;8.90;5.60;;;6.60;99.90;;;;;;4974067;28;20591;-72
2022/04/20 07:03:50;;;;;;;7.67;5.90;;;6.70;99.90;;;;;;4973366;28;20201;-71
2022/04/20 07:06:17;;;;;;;8.20;5.57;;;6.70;99.90;;;;;;4973259;28;20209;-70
2022/04/20 07:08:44;;;;;;;7.10;5.33;;;6.70;99.90;;;;;;4972925;28;20199;-70
2022/04/20 07:11:12;;;;;;;7.43;5.50;;;6.70;99.90;;;;;;4973031;28;20209;-69
2022/04/20 07:13:43;;;;;;;7.27;4.93;;;6.90;99.90;;;;;;4972834;28;20689;-71
2022/04/20 07:16:11;;;;;;;7.63;5.13;;;6.80;99.90;;;;;;4974440;28;20214;-71
2022/04/20 07:18:38;;;;;;;6.20;4.57;;;6.90;99.90;;;;;;4989269;28;20535;-71
2022/04/20 07:21:05;;;;;;;5.07;3.97;;;6.70;99.90;;;;;;4972861;28;20304;-70
2022/04/20 07:23:33;;;;;;;5.10;3.90;;;6.70;99.90;;;;;;4972552;28;20204;-73
2022/04/20 07:26:03;;;;;;;7.70;4.80;;;6.60;99.90;;;;;;4972728;28;20227;-74
2022/04/20 07:28:31;;;;;;;6.70;5.00;;;6.70;99.90;;;;;;4973345;28;20204;-74
2022/04/20 07:30:58;;;;;;;7.67;4.80;;;6.80;99.90;;;;;;4973417;28;20209;-71
2022/04/20 07:33:25;;;;;;;7.13;4.87;;;6.90;99.90;;;;;;4973683;28;20204;-78
2022/04/20 07:35:52;;;;;;;7.23;4.50;;;6.90;99.90;;;;;;4973384;28;20199;-76
2022/04/20 07:38:19;;;;;;;6.70;4.90;;;7.00;99.90;;;;;;4973615;28;20208;-74
2022/04/20 07:40:50;;;;;;;12.47;8.20;;;7.10;99.90;;;;;;4975774;28;20313;-71
2022/04/20 07:43:18;;;;;;;8.20;5.10;;;7.30;99.90;;;;;;4972850;28;20781;-71
2022/04/20 07:45:46;;;;;;;8.90;4.93;;;7.50;99.90;;;;;;4972806;28;20320;-72
2022/04/20 07:48:16;;;;;;;6.63;4.50;;;7.60;99.90;;;;;;4973022;28;20192;-72
2022/04/20 07:50:43;;;;;;;7.30;4.67;;;7.50;99.90;;;;;;4972684;28;20209;-72
2022/04/20 07:53:11;;;;;;;8.30;4.70;;;7.40;99.90;;;;;;4972581;28;20301;-70
2022/04/20 07:55:38;;;;;;;7.73;4.20;;;7.40;99.90;;;;;;4972493;28;20212;-68
2022/04/20 07:58:08;;;;;;;4.70;3.73;;;7.40;99.90;;;;;;4972965;28;20203;-72
2022/04/20 08:00:36;;;;;;;5.33;3.57;;;7.50;99.90;;;;;;4957311;28;20268;-70
2022/04/20 08:03:15;;;;;;;5.73;3.40;;;7.40;99.90;;;;;;4973513;28;20201;-73
2022/04/20 08:05:51;;;;;;;4.27;3.50;;;7.30;99.90;;;;;;4976252;28;20717;-74
2022/04/20 08:08:19;;;;;;;4.60;3.50;;;7.40;99.90;;;;;;4979000;28;20226;-73
2022/04/20 08:10:49;;;;;;;5.43;3.80;;;7.50;99.90;;;;;;4978917;28;20205;-70
2022/04/20 08:16:01;;;;;;;4.50;3.73;;;7.80;99.90;;;;;;4975727;28;20208;-70
2022/04/20 08:18:29;;;;;;;5.03;3.40;;;7.90;99.90;;;;;;4976198;28;20210;-72
2022/04/20 08:20:56;;;;;;;4.03;3.00;;;7.80;99.90;;;;;;4975727;28;20200;-69
2022/04/20 08:23:29;;;;;;;4.47;3.30;;;7.70;99.90;;;;;;4976003;28;20202;-73
2022/04/20 08:26:00;;;;;;;4.03;2.90;;;7.70;99.90;;;;;;4976230;28;20223;-71
2022/04/20 08:28:31;;;;;;;4.60;3.17;;;7.40;99.90;;;;;;4976982;28;20205;-72
2022/04/20 08:30:57;;;;;;;4.33;3.23;;;7.50;99.90;;;;;;4975592;28;20209;-73
2022/04/20 08:33:24;;;;;;;4.93;3.40;;;7.50;99.90;;;;;;4975771;28;20201;-69
2022/04/20 08:35:52;;;;;;;4.57;3.37;;;7.50;99.90;;;;;;4975700;28;20219;-69
2022/04/20 08:38:19;;;;;;;4.50;3.40;;;7.60;99.90;;;;;;4975373;28;20211;-67
2022/04/20 08:40:47;;;;;;;4.83;3.27;;;7.50;99.90;;;;;;4975510;28;20292;-70
2022/04/20 08:43:13;;;;;;;3.67;3.10;;;7.40;99.90;;;;;;4975426;28;20699;-69
2022/04/20 08:45:41;;;;;;;5.87;3.60;;;7.50;99.90;;;;;;4955995;29;20552;-68
2022/04/20 08:48:09;;;;;;;5.90;3.50;;;7.60;99.90;;;;;;4956177;29;20308;-71
2022/04/20 08:50:36;;;;;;;5.80;3.70;;;7.60;99.90;;;;;;4956276;29;20193;-69
2022/04/20 08:53:03;;;;;;;5.80;4.10;;;7.70;99.90;;;;;;4968374;28;20198;-69
2022/04/20 08:55:31;;;;;;;6.33;3.90;;;7.70;99.90;;;;;;4974995;28;20197;-68
2022/04/20 08:57:58;;;;;;;6.43;4.10;;;7.70;99.90;;;;;;4975239;28;20193;-71
2022/04/20 09:00:27;;;;;;;5.93;3.97;;;7.90;99.90;;;;;;4975210;28;20243;-67
2022/04/20 09:03:00;;;;;;;4.53;3.70;;;8.00;99.90;;;;;;4975076;28;20619;-70
2022/04/20 09:05:30;;;;;;;5.23;3.50;;;8.10;99.90;;;;;;4975636;28;20217;-70
2022/04/20 09:07:58;;;;;;;4.83;3.77;;;8.20;99.90;;;;;;4974903;28;20205;-71
2022/04/20 09:10:25;;;;;;;5.13;3.70;;;8.50;99.90;;;;;;4975076;28;20198;-71
2022/04/20 09:13:07;;;;;;;4.70;3.50;;;8.70;99.90;;;;;;4975216;28;20209;-76
2022/04/20 09:15:36;;;;;;;5.33;3.40;;;8.80;99.90;;;;;;4974159;28;20244;-67
2022/04/20 09:18:04;;;;;;;4.80;3.73;;;8.70;99.90;;;;;;4975067;28;20204;-74
2022/04/20 09:20:33;;;;;;;5.77;3.97;;;8.80;99.90;;;;;;4975438;28;20203;-73
2022/04/20 09:23:01;;;;;;;5.10;4.03;;;8.70;99.90;;;;;;4975392;28;20221;-76
2022/04/20 09:25:34;;;;;;;8.10;4.47;;;8.60;99.90;;;;;;4975350;28;20229;-81
2022/04/20 09:28:07;;;;;;;6.03;4.50;;;8.50;99.90;;;;;;4975229;28;20260;-80
2022/04/20 09:30:36;;;;;;;6.53;4.87;;;8.50;99.90;;;;;;4974872;28;20261;-75
2022/04/20 09:33:07;;;;;;;7.97;4.80;;;8.60;99.90;;;;;;4974746;28;20225;-75
2022/04/20 09:35:46;;;;;;;9.40;4.93;;;8.40;99.90;;;;;;4975877;28;20197;-76
2022/04/20 09:38:15;;;;;;;6.30;4.90;;;8.10;99.90;;;;;;4974499;28;20213;-75
2022/04/20 09:40:43;;;;;;;5.87;4.90;;;8.00;99.90;;;;;;4974561;28;20202;-78
2022/04/20 09:43:16;;;;;;;5.30;4.07;;;8.10;99.90;;;;;;4974757;28;20240;-74
2022/04/20 09:45:43;;;;;;;5.90;4.47;;;8.30;99.90;;;;;;4974189;28;20622;-73
2022/04/20 09:51:10;;;;;;;5.23;4.57;;;8.50;99.90;;;;;;4975701;28;20608;-71
2022/04/20 09:53:38;;;;;;;6.27;4.60;;;8.60;99.90;;;;;;4974298;28;20280;-76
2022/04/20 09:56:16;;;;;;;6.43;4.63;;;8.70;99.90;;;;;;4990083;28;20281;-72
2022/04/20 09:58:46;;;;;;;6.63;4.70;;;8.80;99.90;;;;;;4974201;28;20712;-73
2022/04/20 10:01:30;;;;;;;6.07;4.57;;;8.80;99.90;;;;;;4973091;28;20674;-76
2022/04/20 10:04:00;;;;;;;6.93;4.80;;;8.70;99.90;;;;;;4973836;28;20197;-71
2022/04/20 10:06:27;;;;;;;5.77;4.67;;;8.80;99.90;;;;;;4975155;28;20248;-70
2022/04/20 10:08:54;;;;;;;7.43;5.00;;;9.00;99.90;;;;;;4975239;28;20722;-78
2022/04/20 10:11:22;;;;;;;6.37;4.37;;;9.10;99.90;;;;;;4973816;28;20643;-80
2022/04/20 10:16:05;;;;;;;7.47;3.73;;;9.10;99.90;;;;;;4980780;28;20202;-74
2022/04/20 10:16:50;;;;;;;4.80;3.70;;;9.00;99.90;;;;;;4974350;28;20205;-74
2022/04/20 10:19:28;;;;;;;5.93;4.30;;;8.60;99.90;;;;;;4974240;28;20216;-75
2022/04/20 10:21:56;;;;;;;5.17;4.07;;;8.50;99.90;;;;;;4973270;28;20201;-79
2022/04/20 10:24:56;;;;;;;6.40;4.23;;;8.60;99.90;;;;;;4975151;28;20212;-74
2022/04/20 10:28:18;;;;;;;;;;;;;;;;;;;;;
2022/04/20 10:31:30;;;;;;;6.90;5.40;;;8.70;99.90;;;;;;4862721;29;20691;-71
2022/04/20 10:33:59;;;;;;;5.40;4.70;;;8.60;99.90;;;;;;4872179;29;20217;-77
2022/04/20 10:36:31;;;;;;;7.00;5.73;;;8.50;99.90;;;;;;4858669;29;20249;-73
2022/04/20 10:39:34;;;;;;;7.63;5.23;;;8.50;99.90;;;;;;4877756;29;20651;-80
2022/04/20 10:42:17;;;;;;;7.00;5.90;;;8.60;99.90;;;;;;4862397;29;20213;-72
2022/04/20 10:45:00;;;;;;;7.87;5.60;;;8.50;99.90;;;;;;4864154;29;20566;-73
2022/04/20 10:47:56;;;;;;;8.67;6.17;;;8.50;99.90;;;;;;4859086;29;20672;-74
2022/04/20 10:50:28;;;;;;;8.33;6.80;;;8.50;99.90;;;;;;4859283;29;20201;-72
2022/04/20 10:53:04;;;;;;;9.57;6.33;;;8.50;99.90;;;;;;4875469;29;20209;-72
2022/04/20 10:55:49;;;;;;;9.33;6.50;;;8.60;99.90;;;;;;4858945;29;20295;-78
2022/04/20 10:58:21;;;;;;;9.93;6.83;;;8.50;99.90;;;;;;4881269;29;20673;-73
2022/04/20 11:01:10;;;;;;;9.17;6.97;;;8.50;99.90;;;;;;4902555;29;20342;-68
2022/04/20 11:04:01;;;;;;;8.77;6.80;;;8.50;99.90;;;;;;4899122;29;20210;-72
2022/04/20 11:06:59;;;;;;;10.47;7.10;;;8.50;99.90;;;;;;4910022;29;20233;-85
2022/04/20 11:09:45;;;;;;;8.03;6.90;;;8.50;99.90;;;;;;4953587;28;20252;-72
2022/04/20 11:21:07;;;;;;;11.80;9.00;;;8.70;99.90;;;;;;4954341;28;20197;-80
2022/04/20 11:23:55;;;;;;;12.37;9.17;;;8.80;99.90;;;;;;4953909;28;20225;-75
2022/04/20 11:26:39;;;;;;;11.60;8.57;;;8.80;99.90;;;;;;4953561;28;20225;-84
2022/04/20 11:29:17;;;;;;;10.70;7.73;;;8.90;99.90;;;;;;4953422;29;20206;-74
2022/04/20 11:31:57;;;;;;;11.00;7.40;;;8.90;99.90;;;;;;4955217;28;20284;-73
2022/04/20 11:34:27;;;;;;;11.13;7.63;;;8.80;99.90;;;;;;4975486;28;20292;-76
2022/04/20 11:36:58;;;;;;;10.83;8.03;;;8.70;99.90;;;;;;4973886;28;20209;-78
2022/04/20 11:39:28;;;;;;;12.03;7.90;;;8.60;99.90;;;;;;4975255;28;20742;-75
2022/04/20 11:42:02;;;;;;;11.03;8.07;;;8.70;99.90;;;;;;4978247;28;20205;-80
2022/04/20 11:44:33;;;;;;;10.97;8.37;;;8.60;99.90;;;;;;4976045;28;20244;-82
2022/04/20 11:47:09;;;;;;;13.93;9.40;;;8.70;99.90;;;;;;4978103;28;20301;-75
2022/04/20 11:49:44;;;;;;;11.90;8.80;;;8.50;99.90;;;;;;4977905;28;20198;-73
2022/04/20 11:52:14;;;;;;;10.50;7.80;;;8.60;99.90;;;;;;4973326;28;20272;-81
2022/04/20 11:54:45;;;;;;;11.07;8.43;;;8.70;99.90;;;;;;4960788;28;20244;-78
2022/04/20 11:57:15;;;;;;;10.83;7.73;;;8.70;99.90;;;;;;4966722;28;20660;-84
2022/04/20 11:59:48;;;;;;;10.47;7.27;;;8.70;99.90;;;;;;4962353;28;20277;-74
2022/04/20 12:02:16;;;;;;;10.30;7.10;;;8.80;99.90;;;;;;4969206;28;20606;-72
2022/04/20 12:04:44;;;;;;;10.83;7.30;;;8.70;99.90;;;;;;4975751;28;20215;-76
2022/04/20 12:07:13;;;;;;;10.70;7.23;;;8.70;99.90;;;;;;4955907;28;20256;-76
2022/04/20 12:09:59;;;;;;;9.80;7.30;;;8.70;99.90;;;;;;4969283;28;20248;-74
2022/04/20 12:12:26;;;;;;;12.63;8.03;;;8.80;99.90;;;;;;4971455;28;20229;-79
2022/04/20 12:15:08;;;;;;;11.13;7.37;;;8.80;99.90;;;;;;4975100;28;20697;-74
2022/04/20 12:17:37;;;;;;;13.43;7.73;;;8.90;99.90;;;;;;4988796;28;20224;-74
2022/04/20 12:20:05;;;;;;;11.70;8.33;;;9.00;99.90;;;;;;4956572;29;20200;-72
2022/04/20 12:22:40;;;;;;;12.27;8.50;;;9.00;99.90;;;;;;4972144;28;20261;-76
2022/04/20 12:25:14;;;;;;;10.67;8.60;;;9.10;99.90;;;;;;4942296;28;20705;-72
2022/04/20 12:27:56;;;;;;;12.93;9.07;;;9.00;99.90;;;;;;4965695;28;20216;-77
2022/04/20 12:31:01;;;;;;;11.00;8.40;;;9.00;99.90;;;;;;4970523;28;20192;-75
2022/04/20 12:33:59;;;;;;;14.10;9.07;;;9.00;99.90;;;;;;4962990;28;20240;-73
2022/04/20 12:36:26;;;;;;;11.37;8.23;;;9.00;99.90;;;;;;4972141;28;20289;-79
2022/04/20 12:38:57;;;;;;;10.60;7.50;;;9.00;99.90;;;;;;4963042;28;20229;-75
2022/04/20 12:41:45;;;;;;;14.00;7.97;;;9.00;99.90;;;;;;4955727;29;20206;-78
2022/04/20 12:44:36;;;;;;;11.67;7.60;;;8.90;99.90;;;;;;4975057;28;20231;-72
2022/04/20 12:47:06;;;;;;;10.87;8.23;;;8.80;99.90;;;;;;4975178;28;20245;-71
2022/04/20 12:49:33;;;;;;;12.27;8.40;;;8.70;99.90;;;;;;4976564;28;20229;-72
2022/04/20 12:52:15;;;;;;;11.93;8.83;;;8.60;99.90;;;;;;4974460;28;20202;-71
2022/04/20 12:54:58;;;;;;;14.33;9.53;;;8.50;99.90;;;;;;4974981;28;20677;-72
2022/04/20 13:02:58;;;;;;;13.47;9.27;;;8.70;99.90;;;;;;4975589;28;20213;-71
2022/04/20 13:05:25;;;;;;;14.83;10.07;;;8.70;99.90;;;;;;4991023;28;20263;-72
2022/04/20 13:07:52;;;;;;;14.67;8.93;;;8.70;99.90;;;;;;4975135;28;20198;-73
2022/04/20 13:10:19;;;;;;;12.87;8.93;;;8.70;99.90;;;;;;4991041;28;20205;-74
2022/04/20 13:12:47;;;;;;;16.53;9.50;;;8.70;99.90;;;;;;4975264;28;20631;-75
2022/04/20 13:15:14;;;;;;;13.33;9.73;;;8.70;99.90;;;;;;4991113;28;20190;-74
2022/04/20 13:17:41;;;;;;;12.10;9.20;;;8.60;99.90;;;;;;4959143;28;20258;-75
2022/04/20 13:20:08;;;;;;;13.40;8.63;;;8.60;99.90;;;;;;4991432;28;20211;-74
2022/04/20 13:22:35;;;;;;;17.03;9.57;;;8.60;99.90;;;;;;4974584;28;20194;-74
2022/04/20 13:27:57;;;;;;;12.47;8.93;;;8.70;99.90;;;;;;4974242;28;20304;-74
2022/04/20 13:30:29;;;;;;;14.70;9.73;;;8.70;99.90;;;;;;4973742;28;20205;-73
2022/04/20 13:33:02;;;;;;;13.03;9.23;;;8.90;99.90;;;;;;4974959;28;20197;-74
2022/04/20 13:35:30;;;;;;;13.63;8.87;;;9.00;99.90;;;;;;4962334;28;20200;-72
2022/04/20 13:37:58;;;;;;;15.30;9.60;;;9.00;99.90;;;;;;4966493;28;20206;-76
2022/04/20 13:40:30;;;;;;;11.60;8.03;;;9.10;99.90;;;;;;4974090;28;20671;-77
2022/04/20 13:42:58;;;;;;;13.23;8.70;;;9.10;99.90;;;;;;4974700;28;20986;-76
2022/04/20 13:45:25;;;;;;;13.13;8.73;;;9.10;99.90;;;;;;4972457;28;20599;-76